createdAt,value
2018-07-05T00:02:01.932Z,4.87
2018-07-05T00:04:41.717Z,6.03
2018-07-05T00:07:21.276Z,5.40
2018-07-05T00:10:01.028Z,6.00
2018-07-05T00:12:40.737Z,5.83
2018-07-05T00:15:20.663Z,5.50
2018-07-05T00:18:00.304Z,5.87
2018-07-05T00:20:40.157Z,5.87
2018-07-05T00:23:20.060Z,6.20
2018-07-05T00:25:59.754Z,6.17
2018-07-05T00:28:39.628Z,5.80
2018-07-05T00:31:19.688Z,11.07
2018-07-05T00:33:59.535Z,5.03
2018-07-05T00:36:39.152Z,8.50
2018-07-05T00:39:18.852Z,5.60
2018-07-05T00:41:58.609Z,7.70
2018-07-05T00:47:29.144Z,5.80
2018-07-05T00:50:09.276Z,6.10
2018-07-05T00:52:48.961Z,7.73
2018-07-05T00:55:28.750Z,5.77
2018-07-05T00:58:08.522Z,6.20
2018-07-05T01:00:48.405Z,6.00
2018-07-05T01:03:28.303Z,6.20
2018-07-05T01:06:08.163Z,6.20
2018-07-05T01:08:48.728Z,6.77
2018-07-05T01:11:28.610Z,6.90
2018-07-05T01:14:08.321Z,6.70
2018-07-05T01:16:48.009Z,7.33
2018-07-05T01:19:27.895Z,6.53
2018-07-05T01:22:07.556Z,7.00
2018-07-05T01:24:48.365Z,7.30
2018-07-05T01:27:28.631Z,6.60
2018-07-05T01:30:08.414Z,7.60
2018-07-05T01:32:48.274Z,6.80
2018-07-05T01:35:28.119Z,7.90
2018-07-05T01:38:08.262Z,8.00
2018-07-05T01:40:48.080Z,7.60
2018-07-05T01:43:27.996Z,8.07
2018-07-05T01:46:07.752Z,7.73
2018-07-05T01:48:47.549Z,7.70
2018-07-05T01:51:27.547Z,7.37
2018-07-05T01:54:07.450Z,7.43
2018-07-05T01:56:47.438Z,8.57
2018-07-05T01:59:27.823Z,7.67
2018-07-05T02:02:07.579Z,8.23
2018-07-05T02:04:47.660Z,7.43
2018-07-05T02:07:27.454Z,7.93
2018-07-05T02:10:07.358Z,8.17
2018-07-05T02:12:47.115Z,7.53
2018-07-05T02:15:27.263Z,8.00
2018-07-05T02:18:07.155Z,7.70
2018-07-05T02:20:46.979Z,7.33
2018-07-05T02:23:27.330Z,7.67
2018-07-05T02:26:07.157Z,8.50
2018-07-05T02:28:47.108Z,7.83
2018-07-05T02:31:26.768Z,7.13
2018-07-05T02:34:10.974Z,7.87
2018-07-05T02:36:51.240Z,8.00
2018-07-05T02:39:36.201Z,7.73
2018-07-05T02:42:15.910Z,7.93
2018-07-05T02:44:56.097Z,8.40
2018-07-05T02:47:36.142Z,7.87
2018-07-05T02:50:15.826Z,8.13
2018-07-05T02:52:55.715Z,8.77
2018-07-05T02:55:35.426Z,8.60
2018-07-05T02:58:15.197Z,8.03
2018-07-05T03:00:55.388Z,7.97
2018-07-05T03:03:35.077Z,8.50
2018-07-05T03:06:14.912Z,7.83
2018-07-05T03:08:55.048Z,7.67
2018-07-05T03:11:35.124Z,7.93
2018-07-05T03:14:15.091Z,7.97
2018-07-05T03:16:55.075Z,8.30
2018-07-05T03:19:35.402Z,8.23
2018-07-05T03:22:15.206Z,7.53
2018-07-05T03:24:55.000Z,8.37
2018-07-05T03:27:34.969Z,8.70
2018-07-05T03:30:14.810Z,8.90
2018-07-05T03:32:54.516Z,8.23
2018-07-05T03:35:34.790Z,8.17
2018-07-05T03:38:15.432Z,7.83
2018-07-05T03:40:55.376Z,8.53
2018-07-05T03:43:35.660Z,8.60
2018-07-05T03:46:15.521Z,8.60
2018-07-05T03:48:55.822Z,8.97
2018-07-05T03:51:35.969Z,9.20
2018-07-05T03:54:15.722Z,8.90
2018-07-05T03:56:55.655Z,8.43
2018-07-05T03:59:35.473Z,9.60
2018-07-05T04:02:15.371Z,9.07
2018-07-05T04:04:56.109Z,10.57
2018-07-05T04:07:36.048Z,8.77
2018-07-05T04:10:15.967Z,8.87
2018-07-05T04:12:55.954Z,9.00
2018-07-05T04:15:36.246Z,8.40
2018-07-05T04:18:16.566Z,9.07
2018-07-05T04:20:56.512Z,9.70
2018-07-05T04:23:36.362Z,9.20
2018-07-05T04:26:17.463Z,9.23
2018-07-05T04:28:57.892Z,9.33
2018-07-05T04:31:38.721Z,9.17
2018-07-05T04:34:19.548Z,10.10
2018-07-05T04:36:59.883Z,14.80
2018-07-05T04:42:25.017Z,18.07
2018-07-05T04:45:04.652Z,16.60
2018-07-05T04:47:44.622Z,12.30
2018-07-05T04:50:24.633Z,14.27
2018-07-05T04:53:04.789Z,12.83
2018-07-05T04:55:44.553Z,13.30
2018-07-05T04:58:24.488Z,13.47
2018-07-05T05:01:04.530Z,14.03
2018-07-05T05:03:44.524Z,15.03
2018-07-05T05:06:24.284Z,13.47
2018-07-05T05:09:04.574Z,14.17
2018-07-05T05:11:44.806Z,15.40
2018-07-05T05:14:24.974Z,13.13
2018-07-05T05:17:04.749Z,13.30
2018-07-05T05:19:45.115Z,13.47
2018-07-05T05:22:25.039Z,12.77
2018-07-05T05:25:05.333Z,13.90
2018-07-05T05:27:45.223Z,13.20
2018-07-05T05:30:25.025Z,14.33
2018-07-05T05:33:05.211Z,14.43
2018-07-05T05:35:44.941Z,13.77
2018-07-05T05:38:26.669Z,15.13
2018-07-05T05:41:06.394Z,13.53
2018-07-05T05:43:48.143Z,14.53
2018-07-05T05:49:27.530Z,17.50
2018-07-05T05:52:08.182Z,16.00
2018-07-05T05:54:59.360Z,16.53
2018-07-05T05:57:39.720Z,19.03
2018-07-05T06:00:22.259Z,18.00
2018-07-05T06:03:01.962Z,18.97
2018-07-05T06:05:43.012Z,18.37
2018-07-05T06:08:23.066Z,19.53
2018-07-05T06:11:02.771Z,18.27
2018-07-05T06:13:44.228Z,17.90
2018-07-05T06:16:24.267Z,21.67
2018-07-05T06:19:04.300Z,18.30
2018-07-05T06:21:44.214Z,20.83
2018-07-05T06:24:24.231Z,19.43
2018-07-05T06:27:04.581Z,20.17
2018-07-05T06:29:44.901Z,18.50
2018-07-05T06:32:24.459Z,19.73
2018-07-05T06:35:04.640Z,19.63
2018-07-05T06:37:44.362Z,16.83
2018-07-05T06:40:24.134Z,20.80
2018-07-05T06:43:03.710Z,18.53
2018-07-05T06:45:48.712Z,19.70
2018-07-05T06:51:30.356Z,18.67
2018-07-05T06:54:13.919Z,17.43
2018-07-05T06:56:53.693Z,18.43
2018-07-05T06:59:33.507Z,17.13
2018-07-05T07:02:14.013Z,18.23
2018-07-05T07:04:53.773Z,17.63
2018-07-05T07:07:33.484Z,17.30
2018-07-05T07:10:13.316Z,19.27
2018-07-05T07:12:53.071Z,17.80
2018-07-05T07:15:36.071Z,19.83
2018-07-05T07:18:15.981Z,19.93
2018-07-05T07:20:56.239Z,20.53
2018-07-05T07:23:36.129Z,19.67
2018-07-05T07:26:16.240Z,23.27
2018-07-05T07:28:56.455Z,19.87
2018-07-05T07:31:37.971Z,20.53
2018-07-05T07:34:18.116Z,21.07
2018-07-05T07:36:57.930Z,22.10
2018-07-05T07:39:37.685Z,20.53
2018-07-05T07:42:05.054Z,23.03
2018-07-05T07:44:32.445Z,20.53
2018-07-05T07:46:59.809Z,23.47
2018-07-05T07:49:27.197Z,23.00
2018-07-05T07:51:54.725Z,24.70
2018-07-05T07:54:22.223Z,23.77
2018-07-05T07:56:49.813Z,23.27
2018-07-05T07:59:17.414Z,25.23
2018-07-05T08:01:44.858Z,23.43
2018-07-05T08:04:12.775Z,25.43
2018-07-05T08:06:40.252Z,23.53
2018-07-05T08:09:07.663Z,23.53
2018-07-05T08:11:35.173Z,23.90
2018-07-05T08:14:02.746Z,23.53
2018-07-05T08:16:30.217Z,23.17
2018-07-05T08:18:58.578Z,22.77
2018-07-05T08:21:26.581Z,22.43
2018-07-05T08:23:54.212Z,22.83
2018-07-05T08:26:21.861Z,25.00
2018-07-05T08:28:49.490Z,25.43
2018-07-05T08:31:17.018Z,24.63
2018-07-05T08:33:46.449Z,24.33
2018-07-05T08:36:14.370Z,24.33
2018-07-05T08:38:42.183Z,24.60
2018-07-05T08:41:12.140Z,23.93
2018-07-05T08:43:44.638Z,22.60
2018-07-05T08:46:26.270Z,27.00
2018-07-05T08:48:55.324Z,24.50
2018-07-05T08:51:26.200Z,25.10
2018-07-05T08:56:37.287Z,26.30
2018-07-05T08:59:05.717Z,25.97
2018-07-05T09:01:34.612Z,25.07
2018-07-05T09:04:02.296Z,24.77
2018-07-05T09:06:30.915Z,25.23
2018-07-05T09:08:59.205Z,26.33
2018-07-05T09:11:28.053Z,27.67
2018-07-05T09:13:56.711Z,26.77
2018-07-05T09:16:24.450Z,26.03
2018-07-05T09:18:52.068Z,29.20
2018-07-05T09:21:22.958Z,25.80
2018-07-05T09:23:50.699Z,30.70
2018-07-05T09:26:25.815Z,35.90
2018-07-05T09:28:53.368Z,28.20
2018-07-05T09:31:21.041Z,27.67
2018-07-05T09:33:48.967Z,24.47
2018-07-05T09:36:16.381Z,22.97
2018-07-05T09:38:43.736Z,39.63
2018-07-05T09:41:11.154Z,26.30
2018-07-05T09:43:38.539Z,22.17
2018-07-05T09:46:06.139Z,21.23
2018-07-05T09:48:33.896Z,22.10
2018-07-05T09:51:01.229Z,21.77
2018-07-05T09:53:28.627Z,24.80
2018-07-05T09:55:56.103Z,26.12
2018-07-05T09:58:23.555Z,24.25
2018-07-05T10:00:52.215Z,25.70
2018-07-05T10:03:21.212Z,27.70
2018-07-05T10:05:48.984Z,68.25
2018-07-05T10:08:18.279Z,26.82
2018-07-05T10:10:45.675Z,31.27
2018-07-05T10:13:13.272Z,31.45
2018-07-05T10:15:40.856Z,32.88
2018-07-05T10:18:08.271Z,27.75
2018-07-05T10:20:35.761Z,29.20
2018-07-05T10:23:03.127Z,28.38
2018-07-05T10:25:30.546Z,30.90
2018-07-05T10:27:57.927Z,29.37
2018-07-05T10:30:37.354Z,30.65
2018-07-05T10:33:16.970Z,28.67
2018-07-05T10:35:44.441Z,26.12
2018-07-05T10:38:11.957Z,27.27
2018-07-05T10:40:51.561Z,27.45
2018-07-05T10:43:31.360Z,29.57
2018-07-05T10:46:11.021Z,29.25
2018-07-05T10:48:50.725Z,33.90
2018-07-05T10:51:30.354Z,33.63
2018-07-05T10:54:10.060Z,34.33
2018-07-05T10:56:49.690Z,31.23
2018-07-05T10:59:29.984Z,33.57
2018-07-05T11:02:09.690Z,33.07
2018-07-05T11:04:49.537Z,33.00
2018-07-05T11:07:29.054Z,31.47
2018-07-05T11:10:11.024Z,33.17
2018-07-05T11:12:50.737Z,33.43
2018-07-05T11:15:30.605Z,32.77
2018-07-05T11:18:10.222Z,33.00
2018-07-05T11:20:49.852Z,34.13
2018-07-05T11:23:29.676Z,31.43
2018-07-05T11:26:09.280Z,35.27
2018-07-05T11:28:48.864Z,33.47
2018-07-05T11:31:28.782Z,34.00
2018-07-05T11:34:08.410Z,33.40
2018-07-05T11:36:48.279Z,30.10
2018-07-05T11:39:28.035Z,33.70
2018-07-05T11:42:08.069Z,34.50
2018-07-05T11:44:47.786Z,33.67
2018-07-05T11:47:27.438Z,33.60
2018-07-05T11:50:07.141Z,33.87
2018-07-05T11:52:46.714Z,32.77
2018-07-05T11:55:26.398Z,32.63
2018-07-05T11:58:06.375Z,34.27
2018-07-05T12:00:45.921Z,33.83
2018-07-05T12:03:25.634Z,33.30
2018-07-05T12:06:05.467Z,31.47
2018-07-05T12:08:45.486Z,33.90
2018-07-05T12:11:25.258Z,34.27
2018-07-05T12:14:04.991Z,29.47
2018-07-05T12:16:44.568Z,30.17
2018-07-05T12:19:24.174Z,28.73
2018-07-05T12:22:03.846Z,26.13
2018-07-05T12:24:43.636Z,25.67
2018-07-05T12:27:23.336Z,28.37
2018-07-05T12:30:03.344Z,21.00
2018-07-05T12:32:43.125Z,15.50
2018-07-05T12:35:23.063Z,13.83
2018-07-05T12:38:02.793Z,13.03
2018-07-05T12:40:42.561Z,12.53
2018-07-05T12:43:22.217Z,12.50
2018-07-05T12:46:02.330Z,12.90
2018-07-05T12:48:42.546Z,12.47
2018-07-05T12:51:22.849Z,9.37
2018-07-05T12:54:02.407Z,11.12
2018-07-05T12:56:42.130Z,10.17
2018-07-05T12:59:21.684Z,8.00
2018-07-05T13:02:03.360Z,9.33
2018-07-05T13:04:43.172Z,7.97
2018-07-05T13:07:22.894Z,10.63
2018-07-05T13:10:02.672Z,8.28
2018-07-05T13:12:42.624Z,12.68
2018-07-05T13:15:23.341Z,9.85
2018-07-05T13:18:02.907Z,8.38
2018-07-05T13:20:43.742Z,11.12
2018-07-05T13:23:23.933Z,9.48
2018-07-05T13:26:03.679Z,11.33
2018-07-05T13:28:43.253Z,9.45
2018-07-05T13:31:24.525Z,8.60
2018-07-05T13:34:04.274Z,8.48
2018-07-05T13:36:44.503Z,9.10
2018-07-05T13:39:24.144Z,9.35
2018-07-05T13:42:03.925Z,8.08
2018-07-05T13:44:43.611Z,8.20
2018-07-05T13:47:23.131Z,8.50
2018-07-05T13:50:03.264Z,8.50
2018-07-05T13:52:43.272Z,9.63
2018-07-05T13:55:23.096Z,7.93
2018-07-05T13:58:02.854Z,8.13
2018-07-05T14:00:42.500Z,7.27
2018-07-05T14:03:22.270Z,7.07
2018-07-05T14:06:02.049Z,7.30
2018-07-05T14:08:41.790Z,8.53
2018-07-05T14:11:21.552Z,6.67
2018-07-05T14:14:01.254Z,7.27
2018-07-05T14:16:41.051Z,9.80
2018-07-05T14:19:20.696Z,7.70
2018-07-05T14:22:00.580Z,6.80
2018-07-05T14:24:40.195Z,6.90
2018-07-05T14:27:19.906Z,6.87
2018-07-05T14:29:59.559Z,6.23
2018-07-05T14:32:39.301Z,7.13
2018-07-05T14:35:19.087Z,7.20
2018-07-05T14:37:58.806Z,5.53
2018-07-05T14:40:38.418Z,5.40
2018-07-05T14:43:18.215Z,5.97
2018-07-05T14:45:57.884Z,6.13
2018-07-05T14:48:37.506Z,7.00
2018-07-05T14:51:17.301Z,6.30
2018-07-05T14:53:56.863Z,6.43
2018-07-05T14:56:36.575Z,5.83
2018-07-05T14:59:16.457Z,4.70
2018-07-05T15:01:56.042Z,6.30
2018-07-05T15:04:35.835Z,6.10
2018-07-05T15:07:22.750Z,6.57
2018-07-05T15:10:07.812Z,6.00
2018-07-05T15:15:34.872Z,5.93
2018-07-05T15:18:25.596Z,9.60
2018-07-05T15:21:05.628Z,6.23
2018-07-05T15:23:53.658Z,6.20
2018-07-05T15:26:35.165Z,5.30
2018-07-05T15:29:15.119Z,6.23
2018-07-05T15:31:54.717Z,5.07
2018-07-05T15:34:43.975Z,4.57
2018-07-05T15:37:39.451Z,5.60
2018-07-05T15:40:19.326Z,4.43
2018-07-05T15:42:59.179Z,4.63
2018-07-05T15:45:38.844Z,4.70
2018-07-05T15:48:18.510Z,4.93
2018-07-05T15:54:16.256Z,4.70
2018-07-05T16:27:40.158Z,7.37
2018-07-05T16:37:21.531Z,5.10
2018-07-05T16:40:01.285Z,4.50
2018-07-05T16:44:15.780Z,4.57
2018-07-05T16:47:04.111Z,4.77
2018-07-05T16:49:43.754Z,5.53
2018-07-05T16:52:23.519Z,10.03
2018-07-05T16:55:03.602Z,4.43
2018-07-05T16:57:43.401Z,4.70
2018-07-05T17:00:23.028Z,5.73
2018-07-05T17:06:04.907Z,5.23
2018-07-05T17:23:30.994Z,4.90
2018-07-05T17:29:04.777Z,4.40
2018-07-05T17:31:44.762Z,4.10
2018-07-05T17:34:24.505Z,3.73
2018-07-05T17:37:04.257Z,5.03
2018-07-05T17:39:43.814Z,5.07
2018-07-05T17:42:23.465Z,5.43
2018-07-05T17:45:03.216Z,8.20
2018-07-05T17:47:42.741Z,4.37
2018-07-05T17:50:22.351Z,3.70
2018-07-05T17:53:02.149Z,5.10
2018-07-05T17:55:41.941Z,3.20
2018-07-05T17:58:21.538Z,4.30
2018-07-05T18:01:01.320Z,4.00
2018-07-05T18:03:40.976Z,4.50
2018-07-05T18:06:20.577Z,5.50
2018-07-05T18:09:00.250Z,3.57
2018-07-05T18:11:39.720Z,4.10
2018-07-05T18:14:19.421Z,3.10
2018-07-05T18:16:59.059Z,4.13
2018-07-05T18:19:38.530Z,4.03
2018-07-05T18:22:18.209Z,3.17
2018-07-05T18:24:58.032Z,3.50
2018-07-05T18:27:37.652Z,3.40
2018-07-05T18:30:17.473Z,3.07
2018-07-05T18:32:57.191Z,4.83
2018-07-05T18:35:36.992Z,3.83
2018-07-05T18:38:16.542Z,5.63
2018-07-05T18:40:56.117Z,5.73
2018-07-05T18:43:35.819Z,3.33
2018-07-05T18:46:15.447Z,5.33
2018-07-05T18:48:55.084Z,3.10
2018-07-05T18:51:34.889Z,4.97
2018-07-05T18:54:14.628Z,3.53
2018-07-05T18:56:54.229Z,3.97
2018-07-05T18:59:33.964Z,4.27
2018-07-05T19:02:13.573Z,3.83
2018-07-05T19:04:53.301Z,5.83
2018-07-05T19:07:32.958Z,3.40
2018-07-05T19:10:12.601Z,2.80
2018-07-05T19:12:52.872Z,2.77
2018-07-05T19:15:32.876Z,2.70
2018-07-05T19:18:12.678Z,3.13
2018-07-05T19:20:54.594Z,4.47
2018-07-05T19:23:34.367Z,2.60
2018-07-05T19:26:14.128Z,3.77
2018-07-05T19:28:53.870Z,3.67
2018-07-05T19:31:33.484Z,2.70
2018-07-05T19:34:13.261Z,3.57
2018-07-05T19:36:53.077Z,2.50
2018-07-05T19:39:32.672Z,3.30
2018-07-05T19:42:12.351Z,2.90
2018-07-05T19:44:51.902Z,3.23
2018-07-05T19:47:31.553Z,2.93
2018-07-05T19:50:11.482Z,3.27
2018-07-05T19:52:56.348Z,5.40
2018-07-05T19:55:35.940Z,4.57
2018-07-05T19:58:16.549Z,3.67
2018-07-05T20:00:56.305Z,3.10
2018-07-05T20:03:36.013Z,3.00
2018-07-05T20:06:16.005Z,2.70
2018-07-05T20:08:55.796Z,2.73
2018-07-05T20:11:35.544Z,2.77
2018-07-05T20:14:15.104Z,2.60
2018-07-05T20:16:54.799Z,2.03
2018-07-05T20:19:34.587Z,2.20
2018-07-05T20:22:19.404Z,1.90
2018-07-05T20:24:59.234Z,2.70
2018-07-05T20:27:39.126Z,2.60
2018-07-05T20:30:18.949Z,2.50
2018-07-05T20:32:58.586Z,1.70
2018-07-05T20:35:38.164Z,2.00
2018-07-05T20:38:17.763Z,3.70
2018-07-05T20:40:57.306Z,2.33
2018-07-05T20:43:36.934Z,1.57
2018-07-05T20:46:16.739Z,4.37
2018-07-05T20:48:56.330Z,2.00
2018-07-05T20:51:35.918Z,1.30
2018-07-05T20:54:15.651Z,1.67
2018-07-05T20:56:55.284Z,1.40
2018-07-05T20:59:34.941Z,1.37
2018-07-05T21:02:14.691Z,1.40
2018-07-05T21:04:54.331Z,2.03
2018-07-05T21:07:33.837Z,2.00
2018-07-05T21:10:13.450Z,2.43
2018-07-05T21:12:53.246Z,1.37
2018-07-05T21:15:33.072Z,1.37
2018-07-05T21:18:12.759Z,1.10
2018-07-05T21:20:52.437Z,1.13
2018-07-05T21:23:32.374Z,2.47
2018-07-05T21:26:12.141Z,1.23
2018-07-05T21:28:51.724Z,1.50
2018-07-05T21:31:31.279Z,3.07
2018-07-05T21:34:10.937Z,1.40
2018-07-05T21:36:50.578Z,2.03
2018-07-05T21:39:30.227Z,1.33
2018-07-05T21:42:09.943Z,1.40
2018-07-05T21:44:49.453Z,2.00
2018-07-05T21:47:29.122Z,4.67
2018-07-05T21:50:08.725Z,2.30
2018-07-05T21:52:48.320Z,3.17
2018-07-05T21:55:27.928Z,1.90
2018-07-05T21:58:07.504Z,2.03
2018-07-05T22:00:46.943Z,2.93
2018-07-05T22:03:26.530Z,2.03
2018-07-05T22:06:06.016Z,2.60
2018-07-05T22:08:45.795Z,1.57
2018-07-05T22:11:25.502Z,1.80
2018-07-05T22:14:05.162Z,2.17
2018-07-05T22:16:49.989Z,1.53
2018-07-05T22:19:34.952Z,2.03
2018-07-05T22:22:19.965Z,2.20
2018-07-05T22:25:04.862Z,1.93
2018-07-05T22:27:49.725Z,1.47
2018-07-05T22:30:34.784Z,1.50
2018-07-05T22:33:14.521Z,1.60
2018-07-05T22:35:54.233Z,2.30
2018-07-05T22:38:33.939Z,1.60
2018-07-05T22:41:13.524Z,3.27
2018-07-05T22:43:53.147Z,3.60
2018-07-05T22:46:32.686Z,1.70
2018-07-05T22:49:12.337Z,1.87
2018-07-05T22:51:51.890Z,1.80
2018-07-05T22:54:31.635Z,2.10
2018-07-05T22:57:11.355Z,1.50
2018-07-05T22:59:50.997Z,1.70
2018-07-05T23:02:30.633Z,2.07
2018-07-05T23:05:10.234Z,1.70
2018-07-05T23:07:49.835Z,2.23
2018-07-05T23:10:29.403Z,1.60
2018-07-05T23:13:08.961Z,1.60
2018-07-05T23:15:48.554Z,2.77
2018-07-05T23:18:28.114Z,2.20
2018-07-05T23:21:07.620Z,2.20
2018-07-05T23:23:47.287Z,4.23
2018-07-05T23:26:26.827Z,3.00
2018-07-05T23:29:06.574Z,2.47
2018-07-05T23:31:46.213Z,2.10
2018-07-05T23:34:25.906Z,2.50
2018-07-05T23:37:05.398Z,2.87
2018-07-05T23:39:45.128Z,3.50
2018-07-05T23:42:24.694Z,2.40
2018-07-05T23:45:04.205Z,3.53
2018-07-05T23:47:43.620Z,2.30
2018-07-05T23:50:23.268Z,3.47
2018-07-05T23:53:02.834Z,2.83
2018-07-05T23:55:42.429Z,2.20
2018-07-05T23:58:22.110Z,2.70
